createdAt,value
2018-07-20T00:01:34.439Z,21.54
2018-07-20T00:04:01.610Z,21.58
2018-07-20T00:06:28.865Z,21.63
2018-07-20T00:08:56.089Z,21.59
2018-07-20T00:11:23.703Z,21.47
2018-07-20T00:13:51.361Z,21.29
2018-07-20T00:16:19.174Z,21.23
2018-07-20T00:18:46.473Z,21.10
2018-07-20T00:21:13.792Z,21.14
2018-07-20T00:23:41.021Z,21.21
2018-07-20T00:26:08.690Z,21.17
2018-07-20T00:28:36.124Z,21.09
2018-07-20T00:31:03.428Z,21.15
2018-07-20T00:33:30.699Z,21.16
2018-07-20T00:35:57.893Z,21.14
2018-07-20T00:38:25.191Z,21.11
2018-07-20T00:40:52.527Z,21.14
2018-07-20T00:43:19.825Z,21.03
2018-07-20T00:45:47.078Z,20.99
2018-07-20T00:48:14.404Z,21.00
2018-07-20T00:50:41.755Z,20.94
2018-07-20T00:53:08.974Z,20.99
2018-07-20T00:55:36.194Z,20.91
2018-07-20T00:58:03.426Z,20.81
2018-07-20T01:00:31.231Z,20.82
2018-07-20T01:02:58.503Z,20.74
2018-07-20T01:05:25.762Z,20.67
2018-07-20T01:07:53.000Z,20.66
2018-07-20T01:10:20.236Z,20.55
2018-07-20T01:12:47.508Z,20.66
2018-07-20T01:15:14.804Z,20.55
2018-07-20T01:17:42.033Z,20.62
2018-07-20T01:20:09.297Z,20.58
2018-07-20T01:22:36.590Z,20.64
2018-07-20T01:25:03.987Z,20.59
2018-07-20T01:27:31.314Z,20.52
2018-07-20T01:29:58.617Z,20.47
2018-07-20T01:32:25.804Z,20.43
2018-07-20T01:34:53.085Z,20.42
2018-07-20T01:37:20.406Z,20.32
2018-07-20T01:39:47.592Z,20.30
2018-07-20T01:42:14.776Z,20.34
2018-07-20T01:44:42.006Z,20.35
2018-07-20T01:47:09.270Z,20.35
2018-07-20T01:49:36.540Z,20.28
2018-07-20T01:52:03.800Z,20.32
2018-07-20T01:54:31.079Z,20.21
2018-07-20T01:56:58.385Z,20.20
2018-07-20T01:59:25.642Z,20.19
2018-07-20T02:01:52.801Z,20.23
2018-07-20T02:04:20.090Z,20.24
2018-07-20T02:06:47.346Z,20.26
2018-07-20T02:09:14.542Z,20.18
2018-07-20T02:11:41.719Z,20.13
2018-07-20T02:14:08.912Z,20.06
2018-07-20T02:16:36.206Z,19.87
2018-07-20T02:19:03.509Z,19.98
2018-07-20T02:21:30.811Z,19.96
2018-07-20T02:23:57.982Z,19.76
2018-07-20T02:26:25.239Z,19.73
2018-07-20T02:28:52.456Z,19.68
2018-07-20T02:31:19.653Z,19.69
2018-07-20T02:33:46.820Z,19.65
2018-07-20T02:36:14.034Z,19.69
2018-07-20T02:38:41.266Z,19.60
2018-07-20T02:41:08.573Z,19.69
2018-07-20T02:43:35.814Z,19.66
2018-07-20T02:46:03.132Z,19.47
2018-07-20T02:48:30.393Z,19.36
2018-07-20T02:50:57.633Z,19.42
2018-07-20T02:53:24.888Z,19.31
2018-07-20T02:55:52.170Z,19.22
2018-07-20T02:58:19.393Z,19.31
2018-07-20T03:00:46.742Z,19.34
2018-07-20T03:03:18.505Z,19.37
2018-07-20T03:05:45.797Z,19.36
2018-07-20T03:08:13.031Z,19.34
2018-07-20T03:10:40.283Z,19.23
2018-07-20T03:13:07.627Z,19.22
2018-07-20T03:15:34.877Z,19.26
2018-07-20T03:18:02.208Z,19.30
2018-07-20T03:20:29.514Z,19.35
2018-07-20T03:22:56.784Z,19.22
2018-07-20T03:25:24.030Z,19.01
2018-07-20T03:27:51.254Z,19.01
2018-07-20T03:30:18.558Z,19.12
2018-07-20T03:32:45.816Z,19.19
2018-07-20T03:35:13.075Z,19.15
2018-07-20T03:37:40.276Z,19.18
2018-07-20T03:40:07.630Z,19.18
2018-07-20T03:42:34.794Z,19.09
2018-07-20T03:45:02.070Z,18.97
2018-07-20T03:47:29.347Z,18.98
2018-07-20T03:49:56.564Z,19.05
2018-07-20T03:52:23.847Z,18.94
2018-07-20T03:54:51.114Z,18.97
2018-07-20T03:57:18.370Z,19.06
2018-07-20T03:59:45.710Z,18.99
2018-07-20T04:02:13.215Z,18.94
2018-07-20T04:04:40.468Z,18.97
2018-07-20T04:07:07.793Z,18.99
2018-07-20T04:09:35.141Z,18.97
2018-07-20T04:12:02.274Z,18.96
2018-07-20T04:14:29.526Z,19.16
2018-07-20T04:16:56.761Z,19.21
2018-07-20T04:19:24.041Z,19.20
2018-07-20T04:21:51.286Z,19.32
2018-07-20T04:24:18.507Z,19.32
2018-07-20T04:26:45.778Z,19.41
2018-07-20T04:29:13.086Z,19.53
2018-07-20T04:31:40.337Z,19.51
2018-07-20T04:34:07.591Z,19.60
2018-07-20T04:36:34.885Z,19.66
2018-07-20T04:39:02.223Z,19.72
2018-07-20T04:41:29.498Z,19.64
2018-07-20T04:43:56.820Z,19.65
2018-07-20T04:46:24.049Z,19.78
2018-07-20T04:48:51.336Z,19.37
2018-07-20T04:51:18.582Z,19.49
2018-07-20T04:53:45.881Z,19.31
2018-07-20T04:56:13.149Z,19.42
2018-07-20T04:58:40.406Z,19.32
2018-07-20T05:01:07.665Z,19.38
2018-07-20T05:03:34.772Z,19.47
2018-07-20T05:06:02.071Z,19.66
2018-07-20T05:08:29.328Z,19.79
2018-07-20T05:10:56.578Z,19.82
2018-07-20T05:13:23.768Z,19.83
2018-07-20T05:15:51.016Z,19.83
2018-07-20T05:18:18.246Z,19.99
2018-07-20T05:20:45.555Z,20.01
2018-07-20T05:23:12.849Z,19.90
2018-07-20T05:25:40.024Z,19.83
2018-07-20T05:28:07.292Z,19.93
2018-07-20T05:30:34.509Z,20.21
2018-07-20T05:33:01.748Z,20.45
2018-07-20T05:35:28.933Z,20.57
2018-07-20T05:37:56.198Z,20.62
2018-07-20T05:40:23.475Z,20.70
2018-07-20T05:42:50.734Z,20.69
2018-07-20T05:45:17.964Z,20.87
2018-07-20T05:47:45.344Z,20.91
2018-07-20T05:50:12.537Z,21.02
2018-07-20T05:52:39.763Z,21.12
2018-07-20T05:55:07.072Z,21.06
2018-07-20T05:57:34.249Z,21.07
2018-07-20T06:00:01.429Z,21.19
2018-07-20T06:02:28.986Z,21.28
2018-07-20T06:04:56.228Z,21.33
2018-07-20T06:07:23.460Z,21.63
2018-07-20T06:09:50.727Z,22.02
2018-07-20T06:12:17.987Z,22.25
2018-07-20T06:14:46.989Z,22.26
2018-07-20T06:17:14.289Z,22.43
2018-07-20T06:19:41.517Z,22.60
2018-07-20T06:22:08.838Z,22.58
2018-07-20T06:24:36.164Z,22.66
2018-07-20T06:27:03.496Z,22.77
2018-07-20T06:29:30.925Z,22.80
2018-07-20T06:31:58.157Z,22.72
2018-07-20T06:34:25.438Z,22.78
2018-07-20T06:36:52.701Z,22.83
2018-07-20T06:39:19.931Z,22.82
2018-07-20T06:41:47.104Z,22.87
2018-07-20T06:44:14.318Z,22.73
2018-07-20T06:46:41.552Z,22.77
2018-07-20T06:49:08.822Z,23.01
2018-07-20T06:51:36.410Z,23.29
2018-07-20T06:54:03.759Z,23.48
2018-07-20T06:56:31.133Z,23.45
2018-07-20T06:58:58.429Z,23.73
2018-07-20T07:01:25.641Z,23.93
2018-07-20T07:03:52.861Z,24.07
2018-07-20T07:06:20.089Z,24.14
2018-07-20T07:08:47.328Z,24.29
2018-07-20T07:11:14.647Z,24.28
2018-07-20T07:13:41.957Z,24.53
2018-07-20T07:16:09.154Z,24.70
2018-07-20T07:18:36.867Z,25.14
2018-07-20T07:21:04.258Z,25.22
2018-07-20T07:23:31.735Z,25.21
2018-07-20T07:25:59.210Z,25.16
2018-07-20T07:28:26.286Z,25.42
2018-07-20T07:30:53.632Z,25.54
2018-07-20T07:33:20.826Z,25.72
2018-07-20T07:35:48.075Z,25.92
2018-07-20T07:38:15.310Z,26.00
2018-07-20T07:40:42.669Z,25.99
2018-07-20T07:43:09.995Z,26.03
2018-07-20T07:45:37.272Z,26.16
2018-07-20T07:48:04.613Z,26.22
2018-07-20T07:50:31.859Z,26.27
2018-07-20T07:52:59.119Z,26.39
2018-07-20T07:55:26.367Z,26.53
2018-07-20T07:57:53.661Z,26.75
2018-07-20T08:00:20.997Z,26.67
2018-07-20T08:02:48.199Z,26.67
2018-07-20T08:05:15.429Z,26.82
2018-07-20T08:07:42.589Z,27.17
2018-07-20T08:10:09.971Z,27.32
2018-07-20T08:12:37.173Z,27.62
2018-07-20T08:15:05.597Z,27.60
2018-07-20T08:17:32.778Z,27.74
2018-07-20T08:20:00.042Z,27.76
2018-07-20T08:22:27.253Z,27.73
2018-07-20T08:24:54.565Z,27.70
2018-07-20T08:27:21.857Z,27.91
2018-07-20T08:29:49.091Z,27.74
2018-07-20T08:32:16.333Z,28.11
2018-07-20T08:34:43.611Z,28.39
2018-07-20T08:37:10.870Z,28.61
2018-07-20T08:39:38.106Z,28.88
2018-07-20T08:42:05.393Z,29.07
2018-07-20T08:44:32.642Z,29.12
2018-07-20T08:46:59.888Z,29.14
2018-07-20T08:49:27.249Z,29.11
2018-07-20T08:51:54.620Z,29.38
2018-07-20T08:54:21.899Z,29.50
2018-07-20T08:56:49.106Z,29.61
2018-07-20T08:59:16.288Z,29.52
2018-07-20T09:01:43.538Z,29.52
2018-07-20T09:04:10.858Z,29.40
2018-07-20T09:06:38.104Z,29.38
2018-07-20T09:09:06.449Z,29.54
2018-07-20T09:11:33.719Z,29.65
2018-07-20T09:14:01.060Z,29.40
2018-07-20T09:16:28.266Z,29.31
2018-07-20T09:18:55.802Z,29.61
2018-07-20T09:21:23.268Z,29.78
2018-07-20T09:23:50.718Z,30.00
2018-07-20T09:26:18.223Z,29.84
2018-07-20T09:28:45.613Z,30.12
2018-07-20T09:31:12.932Z,30.24
2018-07-20T09:33:40.207Z,30.37
2018-07-20T09:36:07.493Z,31.02
2018-07-20T09:38:34.786Z,31.51
2018-07-20T09:41:02.070Z,31.73
2018-07-20T09:43:29.338Z,31.83
2018-07-20T09:45:56.508Z,31.75
2018-07-20T09:48:23.828Z,32.22
2018-07-20T09:50:51.229Z,32.42
2018-07-20T09:53:18.467Z,32.23
2018-07-20T09:55:45.699Z,31.45
2018-07-20T09:58:13.024Z,31.20
2018-07-20T10:00:48.318Z,30.75
2018-07-20T10:03:15.554Z,30.73
2018-07-20T10:05:42.859Z,30.56
2018-07-20T10:08:10.102Z,30.57
2018-07-20T10:10:37.450Z,30.59
2018-07-20T10:13:04.856Z,30.67
2018-07-20T10:15:32.186Z,30.65
2018-07-20T10:17:59.541Z,30.52
2018-07-20T10:20:26.818Z,30.19
2018-07-20T10:22:54.138Z,30.51
2018-07-20T10:25:21.480Z,30.71
2018-07-20T10:27:48.755Z,31.12
2018-07-20T10:30:15.991Z,31.70
2018-07-20T10:32:43.317Z,31.87
2018-07-20T10:35:10.537Z,31.94
2018-07-20T10:37:37.768Z,32.55
2018-07-20T10:40:05.037Z,32.84
2018-07-20T10:42:32.292Z,33.30
2018-07-20T10:44:59.639Z,33.18
2018-07-20T10:47:26.905Z,32.82
2018-07-20T10:49:54.166Z,32.76
2018-07-20T10:52:21.427Z,33.04
2018-07-20T10:54:48.677Z,33.18
2018-07-20T10:57:15.943Z,33.32
2018-07-20T10:59:44.340Z,33.40
2018-07-20T11:02:11.956Z,33.31
2018-07-20T11:04:39.252Z,32.85
2018-07-20T11:07:06.512Z,33.05
2018-07-20T11:09:33.690Z,33.43
2018-07-20T11:12:00.929Z,33.52
2018-07-20T11:14:28.168Z,33.50
2018-07-20T11:19:35.144Z,33.38
2018-07-20T11:22:02.513Z,33.32
2018-07-20T11:24:29.863Z,33.39
2018-07-20T11:26:57.179Z,33.90
2018-07-20T11:29:24.528Z,34.23
2018-07-20T11:31:51.713Z,34.10
2018-07-20T11:34:19.024Z,34.20
2018-07-20T11:36:46.309Z,34.26
2018-07-20T11:39:13.508Z,34.44
2018-07-20T11:41:40.817Z,34.71
2018-07-20T11:44:08.207Z,34.46
2018-07-20T11:46:35.487Z,34.39
2018-07-20T11:49:02.800Z,34.43
2018-07-20T11:51:30.071Z,34.45
2018-07-20T11:53:57.379Z,34.57
2018-07-20T11:56:24.608Z,35.13
2018-07-20T11:58:51.872Z,35.24
2018-07-20T12:01:19.252Z,35.34
2018-07-20T12:03:46.601Z,35.32
2018-07-20T12:06:13.834Z,34.77
2018-07-20T12:08:41.159Z,34.53
2018-07-20T12:11:08.412Z,34.78
2018-07-20T12:13:35.697Z,34.57
2018-07-20T12:16:03.028Z,35.06
2018-07-20T12:18:30.307Z,35.25
2018-07-20T12:20:57.565Z,35.32
2018-07-20T12:23:24.945Z,35.49
2018-07-20T12:25:52.195Z,35.95
2018-07-20T12:28:19.463Z,35.93
2018-07-20T12:30:46.712Z,35.89
2018-07-20T12:33:13.954Z,35.68
2018-07-20T12:35:41.217Z,35.90
2018-07-20T12:38:08.546Z,35.89
2018-07-20T12:40:35.797Z,35.98
2018-07-20T12:43:03.050Z,36.28
2018-07-20T12:45:30.610Z,35.43
2018-07-20T12:47:57.979Z,34.75
2018-07-20T12:50:25.314Z,35.01
2018-07-20T12:52:52.592Z,35.18
2018-07-20T12:55:19.902Z,35.44
2018-07-20T12:57:47.176Z,35.99
2018-07-20T13:00:14.453Z,36.40
2018-07-20T13:02:41.768Z,36.27
2018-07-20T13:05:09.023Z,36.10
2018-07-20T13:07:36.270Z,35.95
2018-07-20T13:10:04.109Z,35.92
2018-07-20T13:12:31.409Z,35.91
2018-07-20T13:14:58.664Z,36.35
2018-07-20T13:17:25.979Z,36.26
2018-07-20T13:19:53.222Z,36.49
2018-07-20T13:22:20.509Z,36.51
2018-07-20T13:24:47.810Z,36.93
2018-07-20T13:27:15.163Z,36.85
2018-07-20T13:29:42.474Z,36.15
2018-07-20T13:32:09.807Z,36.09
2018-07-20T13:34:37.023Z,35.80
2018-07-20T13:37:04.363Z,35.80
2018-07-20T13:39:31.605Z,36.00
2018-07-20T13:41:58.870Z,36.27
2018-07-20T13:44:26.202Z,36.40
2018-07-20T13:46:53.472Z,35.74
2018-07-20T13:49:20.766Z,35.18
2018-07-20T13:51:48.096Z,35.03
2018-07-20T13:54:15.414Z,34.35
2018-07-20T13:56:42.709Z,35.26
2018-07-20T13:59:09.955Z,35.35
2018-07-20T14:01:37.249Z,35.16
2018-07-20T14:04:04.655Z,34.38
2018-07-20T14:06:31.966Z,34.19
2018-07-20T14:08:59.269Z,33.76
2018-07-20T14:11:26.687Z,33.72
2018-07-20T14:13:53.918Z,33.67
2018-07-20T14:16:21.146Z,33.42
2018-07-20T14:18:48.381Z,33.29
2018-07-20T14:21:15.641Z,33.16
2018-07-20T14:23:43.062Z,33.13
2018-07-20T14:26:10.269Z,33.20
2018-07-20T14:28:37.554Z,33.22
2018-07-20T14:31:04.871Z,32.97
2018-07-20T14:33:32.066Z,32.97
2018-07-20T14:35:59.369Z,33.19
2018-07-20T14:38:26.714Z,33.40
2018-07-20T14:40:53.964Z,33.25
2018-07-20T14:43:21.286Z,32.76
2018-07-20T14:45:48.602Z,32.95
2018-07-20T14:48:15.869Z,32.97
2018-07-20T14:50:43.213Z,33.06
2018-07-20T14:53:10.456Z,33.18
2018-07-20T14:55:37.771Z,32.89
2018-07-20T14:58:05.138Z,32.66
2018-07-20T15:00:32.333Z,32.34
2018-07-20T15:02:59.604Z,32.09
2018-07-20T15:05:26.867Z,31.98
2018-07-20T15:07:54.124Z,31.80
2018-07-20T15:10:21.348Z,31.79
2018-07-20T15:12:48.610Z,31.69
2018-07-20T15:15:15.885Z,31.48
2018-07-20T15:17:43.131Z,31.43
2018-07-20T15:20:10.409Z,31.34
2018-07-20T15:22:37.562Z,31.30
2018-07-20T15:25:05.019Z,31.27
2018-07-20T15:27:32.521Z,31.33
2018-07-20T15:29:59.788Z,31.27
2018-07-20T15:32:27.106Z,30.95
2018-07-20T15:34:54.304Z,30.89
2018-07-20T15:37:21.536Z,30.93
2018-07-20T15:39:48.945Z,30.66
2018-07-20T15:42:16.268Z,30.47
2018-07-20T15:44:43.578Z,30.52
2018-07-20T15:47:10.919Z,30.49
2018-07-20T15:49:38.095Z,30.63
2018-07-20T15:54:32.670Z,30.77
2018-07-20T15:56:59.844Z,31.07
2018-07-20T15:59:27.103Z,31.16
2018-07-20T16:01:54.353Z,31.28
2018-07-20T16:04:21.556Z,31.53
2018-07-20T16:06:48.807Z,31.87
2018-07-20T16:09:15.999Z,31.93
2018-07-20T16:11:43.321Z,32.28
2018-07-20T16:14:10.512Z,32.22
2018-07-20T16:16:37.786Z,31.63
2018-07-20T16:19:05.243Z,31.59
2018-07-20T16:21:32.558Z,31.43
2018-07-20T16:23:59.812Z,31.56
2018-07-20T16:26:27.080Z,31.72
2018-07-20T16:28:54.271Z,31.87
2018-07-20T16:31:21.507Z,31.72
2018-07-20T16:33:48.726Z,31.91
2018-07-20T16:36:15.996Z,32.04
2018-07-20T16:38:43.192Z,31.49
2018-07-20T16:41:10.378Z,31.11
2018-07-20T16:43:37.562Z,31.18
2018-07-20T16:46:04.926Z,31.30
2018-07-20T16:48:32.236Z,31.18
2018-07-20T16:50:59.550Z,30.79
2018-07-20T16:53:26.779Z,30.60
2018-07-20T16:55:54.128Z,30.20
2018-07-20T16:58:21.564Z,29.43
2018-07-20T17:00:48.831Z,28.81
2018-07-20T17:03:16.208Z,28.42
2018-07-20T17:05:43.477Z,27.59
2018-07-20T17:08:10.708Z,26.94
2018-07-20T17:10:38.005Z,26.24
2018-07-20T17:13:05.235Z,25.80
2018-07-20T17:15:32.551Z,25.68
2018-07-20T17:17:59.807Z,25.43
2018-07-20T17:20:27.107Z,25.33
2018-07-20T17:22:54.340Z,25.14
2018-07-20T17:25:21.649Z,25.09
2018-07-20T17:27:48.940Z,24.93
2018-07-20T17:30:16.223Z,24.55
2018-07-20T17:32:43.500Z,24.42
2018-07-20T17:35:10.757Z,24.32
2018-07-20T17:37:37.995Z,24.18
2018-07-20T17:40:05.250Z,24.12
2018-07-20T17:42:32.548Z,24.12
2018-07-20T17:44:59.817Z,23.98
2018-07-20T17:47:27.154Z,23.97
2018-07-20T17:49:54.323Z,24.06
2018-07-20T17:52:21.556Z,23.96
2018-07-20T17:54:48.909Z,23.88
2018-07-20T17:57:16.207Z,23.77
2018-07-20T17:59:43.415Z,23.76
2018-07-20T18:02:10.716Z,23.60
2018-07-20T18:04:37.978Z,23.57
2018-07-20T18:07:05.304Z,23.54
2018-07-20T18:09:32.565Z,23.54
2018-07-20T18:14:19.319Z,23.55
2018-07-20T18:16:46.538Z,23.31
2018-07-20T18:19:13.833Z,23.25
2018-07-20T18:21:41.089Z,23.20
2018-07-20T18:24:08.302Z,23.26
2018-07-20T18:26:35.539Z,23.24
2018-07-20T18:29:02.831Z,23.24
2018-07-20T18:31:30.077Z,23.20
2018-07-20T18:33:57.385Z,23.14
2018-07-20T18:36:24.492Z,23.02
2018-07-20T18:38:51.783Z,23.05
2018-07-20T18:41:19.069Z,23.04
2018-07-20T18:43:46.258Z,22.89
2018-07-20T18:46:13.496Z,23.02
2018-07-20T18:48:40.840Z,22.89
2018-07-20T18:51:08.108Z,22.90
2018-07-20T18:53:36.508Z,22.81
2018-07-20T18:56:03.862Z,22.80
2018-07-20T18:58:31.061Z,22.84
2018-07-20T19:00:58.414Z,22.76
2018-07-20T19:03:27.717Z,22.79
2018-07-20T19:05:54.958Z,22.83
2018-07-20T19:08:22.136Z,22.87
2018-07-20T19:10:49.361Z,22.97
2018-07-20T19:13:16.662Z,22.94
2018-07-20T19:15:43.957Z,22.97
2018-07-20T19:18:11.185Z,23.03
2018-07-20T19:20:38.348Z,23.07
2018-07-20T19:23:05.575Z,23.12
2018-07-20T19:25:32.758Z,23.16
2018-07-20T19:28:00.054Z,23.16
2018-07-20T19:30:27.327Z,23.06
2018-07-20T19:32:54.590Z,23.08
2018-07-20T19:35:21.850Z,23.08
2018-07-20T19:37:49.128Z,23.10
2018-07-20T19:40:16.405Z,23.17
2018-07-20T19:42:43.682Z,23.20
2018-07-20T19:45:10.957Z,23.27
2018-07-20T19:47:38.356Z,23.30
2018-07-20T19:50:05.777Z,23.35
2018-07-20T19:52:33.085Z,23.39
2018-07-20T19:55:00.338Z,23.48
2018-07-20T19:57:27.700Z,23.46
2018-07-20T19:59:55.010Z,23.57
2018-07-20T20:02:22.262Z,23.68
2018-07-20T20:06:17.628Z,23.66
2018-07-20T20:08:44.882Z,23.40
2018-07-20T20:11:12.223Z,23.27
2018-07-20T20:13:39.572Z,23.39
2018-07-20T20:16:06.889Z,23.28
2018-07-20T20:18:34.260Z,23.33
2018-07-20T20:21:01.466Z,23.36
2018-07-20T20:23:28.724Z,23.44
2018-07-20T20:25:55.953Z,23.50
2018-07-20T20:28:23.186Z,23.60
2018-07-20T20:30:50.425Z,23.69
2018-07-20T20:33:17.819Z,23.81
2018-07-20T20:35:45.070Z,23.86
2018-07-20T20:38:12.319Z,23.96
2018-07-20T20:40:39.599Z,24.05
2018-07-20T20:43:06.883Z,24.08
2018-07-20T20:45:34.238Z,24.00
2018-07-20T20:48:01.529Z,24.06
2018-07-20T20:50:28.880Z,24.00
2018-07-20T20:52:56.200Z,23.99
2018-07-20T20:55:23.435Z,23.90
2018-07-20T20:57:50.706Z,23.90
2018-07-20T21:00:17.982Z,23.90
2018-07-20T21:02:45.273Z,23.94
2018-07-20T21:05:12.637Z,23.98
2018-07-20T21:07:39.906Z,23.94
2018-07-20T21:10:07.193Z,23.88
2018-07-20T21:12:34.421Z,23.85
2018-07-20T21:15:02.020Z,23.94
2018-07-20T21:17:29.314Z,23.95
2018-07-20T21:19:56.531Z,23.90
2018-07-20T21:22:23.706Z,23.89
2018-07-20T21:24:51.005Z,23.86
2018-07-20T21:27:18.332Z,23.77
2018-07-20T21:29:45.650Z,23.71
2018-07-20T21:32:12.880Z,23.46
2018-07-20T21:34:40.142Z,23.41
2018-07-20T21:37:07.323Z,23.22
2018-07-20T21:39:34.637Z,23.16
2018-07-20T21:42:01.898Z,23.11
2018-07-20T21:44:29.124Z,23.06
2018-07-20T21:46:56.406Z,23.01
2018-07-20T21:49:23.598Z,22.93
2018-07-20T21:51:50.992Z,22.89
2018-07-20T21:54:18.252Z,22.95
2018-07-20T21:56:45.400Z,23.02
2018-07-20T21:59:12.707Z,22.99
2018-07-20T22:01:39.957Z,22.93
2018-07-20T22:04:07.281Z,22.93
2018-07-20T22:06:34.486Z,22.85
2018-07-20T22:09:01.750Z,22.95
2018-07-20T22:11:28.989Z,22.95
2018-07-20T22:13:56.246Z,22.97
2018-07-20T22:16:23.513Z,22.96
2018-07-20T22:18:50.839Z,23.03
2018-07-20T22:21:18.130Z,22.99
2018-07-20T22:23:45.364Z,23.02
2018-07-20T22:26:12.696Z,22.85
2018-07-20T22:28:39.871Z,22.72
2018-07-20T22:31:07.153Z,22.70
2018-07-20T22:33:34.368Z,22.71
2018-07-20T22:36:01.634Z,22.68
2018-07-20T22:38:28.787Z,22.65
2018-07-20T22:40:56.012Z,22.64
2018-07-20T22:43:23.220Z,22.66
2018-07-20T22:45:50.404Z,22.62
2018-07-20T22:48:17.623Z,22.60
2018-07-20T22:50:44.815Z,22.57
2018-07-20T22:53:12.131Z,22.57
2018-07-20T22:55:39.386Z,22.55
2018-07-20T22:58:06.639Z,22.40
2018-07-20T23:00:33.810Z,22.39
2018-07-20T23:03:01.089Z,22.33
2018-07-20T23:05:28.318Z,22.40
2018-07-20T23:07:55.582Z,22.33
2018-07-20T23:10:22.839Z,22.35
2018-07-20T23:12:50.193Z,22.36
2018-07-20T23:15:17.498Z,22.33
2018-07-20T23:17:44.769Z,22.29
2018-07-20T23:20:11.964Z,22.28
2018-07-20T23:22:39.197Z,22.34
2018-07-20T23:25:06.486Z,22.38
2018-07-20T23:27:33.682Z,22.42
2018-07-20T23:30:00.812Z,22.34
2018-07-20T23:32:28.028Z,22.25
2018-07-20T23:34:55.281Z,22.13
2018-07-20T23:37:22.561Z,22.09
2018-07-20T23:39:49.757Z,22.07
2018-07-20T23:42:16.960Z,22.02
2018-07-20T23:44:44.195Z,22.04
2018-07-20T23:47:11.675Z,21.94
2018-07-20T23:49:38.953Z,21.93
2018-07-20T23:52:06.364Z,21.90
2018-07-20T23:54:33.765Z,21.90
2018-07-20T23:57:00.979Z,21.82
2018-07-20T23:59:28.216Z,21.82
